createdAt,value
2017-09-29T00:00:15.771Z,16.17
2017-09-29T00:01:16.058Z,16.26
2017-09-29T00:02:16.038Z,16.26
2017-09-29T00:03:16.016Z,16.23
2017-09-29T00:04:15.682Z,16.16
2017-09-29T00:05:15.971Z,16.16
2017-09-29T00:06:15.958Z,16.26
2017-09-29T00:07:15.942Z,16.25
2017-09-29T00:08:15.913Z,16.22
2017-09-29T00:09:15.893Z,16.16
2017-09-29T00:10:15.566Z,16.17
2017-09-29T00:11:15.846Z,16.17
2017-09-29T00:12:15.519Z,16.16
2017-09-29T00:13:15.801Z,16.16
2017-09-29T00:14:15.784Z,16.14
2017-09-29T00:15:15.761Z,16.07
2017-09-29T00:16:15.743Z,16.13
2017-09-29T00:17:15.720Z,16.16
2017-09-29T00:18:15.711Z,16.08
2017-09-29T00:19:15.680Z,16.08
2017-09-29T00:20:15.661Z,16.1
2017-09-29T00:21:15.637Z,16.03
2017-09-29T00:22:15.620Z,16.06
2017-09-29T00:23:15.593Z,15.98
2017-09-29T00:24:15.567Z,16.1
2017-09-29T00:25:15.550Z,16.04
2017-09-29T00:26:15.529Z,15.99
2017-09-29T00:27:15.514Z,16.04
2017-09-29T00:28:15.491Z,15.99
2017-09-29T00:29:15.471Z,15.99
2017-09-29T00:30:15.451Z,15.93
2017-09-29T00:31:15.431Z,16.04
2017-09-29T00:32:15.403Z,16.01
2017-09-29T00:33:15.386Z,15.99
2017-09-29T00:34:15.061Z,15.98
2017-09-29T00:35:15.339Z,15.95
2017-09-29T00:36:15.318Z,15.98
2017-09-29T00:37:15.305Z,15.99
2017-09-29T00:38:15.277Z,15.98
2017-09-29T00:39:15.251Z,15.95
2017-09-29T00:40:15.230Z,15.99
2017-09-29T00:41:15.212Z,15.95
2017-09-29T00:42:15.200Z,15.98
2017-09-29T00:43:15.169Z,15.98
2017-09-29T00:44:15.152Z,15.96
2017-09-29T00:45:15.138Z,15.95
2017-09-29T00:46:14.802Z,15.95
2017-09-29T00:47:15.093Z,15.98
2017-09-29T00:48:15.064Z,15.93
2017-09-29T00:49:15.049Z,15.93
2017-09-29T00:50:15.031Z,16.03
2017-09-29T00:51:15.001Z,15.95
2017-09-29T00:52:14.985Z,15.99
2017-09-29T00:53:14.958Z,15.98
2017-09-29T00:54:14.943Z,16.03
2017-09-29T00:55:14.921Z,15.95
2017-09-29T00:56:14.896Z,15.98
2017-09-29T00:57:14.569Z,15.95
2017-09-29T00:58:14.854Z,16.01
2017-09-29T00:59:14.832Z,15.96
2017-09-29T01:00:14.813Z,15.95
2017-09-29T01:01:14.794Z,16.06
2017-09-29T01:02:14.775Z,16.04
2017-09-29T01:03:14.754Z,16.06
2017-09-29T01:04:14.776Z,16.11
2017-09-29T01:05:14.705Z,16.03
2017-09-29T01:06:14.680Z,16.1
2017-09-29T01:07:14.677Z,16.03
2017-09-29T01:08:14.642Z,16.01
2017-09-29T01:09:14.622Z,15.99
2017-09-29T01:10:14.600Z,15.96
2017-09-29T01:11:14.578Z,15.95
2017-09-29T01:12:14.560Z,15.98
2017-09-29T01:13:14.541Z,16.03
2017-09-29T01:14:14.506Z,15.95
2017-09-29T01:15:14.503Z,15.96
2017-09-29T01:16:14.473Z,15.95
2017-09-29T01:17:14.456Z,15.95
2017-09-29T01:18:14.425Z,15.91
2017-09-29T01:19:14.414Z,15.91
2017-09-29T01:20:14.387Z,16.01
2017-09-29T01:21:14.365Z,15.91
2017-09-29T01:22:14.352Z,16.01
2017-09-29T01:23:14.327Z,15.92
2017-09-29T01:24:14.309Z,15.95
2017-09-29T01:25:14.284Z,16.03
2017-09-29T01:26:14.263Z,16.03
2017-09-29T01:27:14.246Z,15.92
2017-09-29T01:28:14.215Z,15.95
2017-09-29T01:29:14.198Z,16.01
2017-09-29T01:30:14.178Z,15.95
2017-09-29T01:31:14.157Z,15.95
2017-09-29T01:32:13.518Z,15.98
2017-09-29T01:33:14.115Z,16.03
2017-09-29T01:34:14.097Z,15.96
2017-09-29T01:35:14.127Z,15.95
2017-09-29T01:36:14.051Z,15.96
2017-09-29T01:37:14.028Z,15.98
2017-09-29T01:38:14.015Z,15.99
2017-09-29T01:39:13.991Z,15.99
2017-09-29T01:40:13.970Z,15.95
2017-09-29T01:41:13.967Z,16.01
2017-09-29T01:42:13.922Z,16.04
2017-09-29T01:43:13.902Z,15.92
2017-09-29T01:44:13.893Z,16.03
2017-09-29T01:45:13.862Z,16.04
2017-09-29T01:46:13.839Z,16.01
2017-09-29T01:47:13.811Z,16.1
2017-09-29T01:48:13.796Z,16.08
2017-09-29T01:49:13.839Z,16.04
2017-09-29T01:50:13.757Z,16.08
2017-09-29T01:51:13.728Z,16.08
2017-09-29T01:52:13.712Z,16.11
2017-09-29T01:53:13.694Z,16.04
2017-09-29T01:54:13.667Z,16.1
2017-09-29T01:55:13.652Z,16.04
2017-09-29T01:56:13.680Z,16.06
2017-09-29T01:57:13.299Z,16.03
2017-09-29T01:58:13.580Z,16.11
2017-09-29T01:59:13.564Z,15.99
2017-09-29T02:00:13.289Z,16.11
2017-09-29T02:01:13.534Z,16.08
2017-09-29T02:02:13.505Z,16.14
2017-09-29T02:03:13.494Z,16.04
2017-09-29T02:04:13.458Z,15.95
2017-09-29T02:05:13.439Z,15.96
2017-09-29T02:06:13.417Z,16.04
2017-09-29T02:07:13.404Z,16.01
2017-09-29T02:08:13.377Z,16.03
2017-09-29T02:09:13.354Z,15.95
2017-09-29T02:10:13.329Z,15.98
2017-09-29T02:11:13.311Z,15.93
2017-09-29T02:12:13.293Z,15.96
2017-09-29T02:13:13.267Z,15.98
2017-09-29T02:14:13.254Z,15.92
2017-09-29T02:15:13.398Z,15.98
2017-09-29T02:16:12.898Z,15.98
2017-09-29T02:17:13.188Z,15.99
2017-09-29T02:18:13.219Z,15.95
2017-09-29T02:19:13.138Z,15.96
2017-09-29T02:20:13.131Z,15.95
2017-09-29T02:21:13.095Z,15.99
2017-09-29T02:22:13.076Z,16.01
2017-09-29T02:23:13.055Z,15.93
2017-09-29T02:24:13.036Z,15.99
2017-09-29T02:25:13.023Z,15.91
2017-09-29T02:26:12.993Z,15.93
2017-09-29T02:27:12.975Z,15.93
2017-09-29T02:28:12.947Z,15.98
2017-09-29T02:29:12.937Z,15.92
2017-09-29T02:30:12.906Z,15.93
2017-09-29T02:31:12.887Z,15.98
2017-09-29T02:32:12.874Z,15.92
2017-09-29T02:33:12.849Z,15.99
2017-09-29T02:34:12.828Z,15.99
2017-09-29T02:35:12.808Z,15.98
2017-09-29T02:36:12.781Z,15.99
2017-09-29T02:37:12.760Z,15.95
2017-09-29T02:38:12.738Z,15.99
2017-09-29T02:39:12.749Z,15.96
2017-09-29T02:40:12.704Z,15.95
2017-09-29T02:41:12.686Z,15.98
2017-09-29T02:42:12.654Z,16.04
2017-09-29T02:43:12.636Z,15.98
2017-09-29T02:44:12.310Z,15.98
2017-09-29T02:45:12.594Z,16.07
2017-09-29T02:46:12.575Z,16.11
2017-09-29T02:47:12.240Z,15.99
2017-09-29T02:48:12.534Z,15.98
2017-09-29T02:49:12.510Z,16.08
2017-09-29T02:50:12.540Z,16.04
2017-09-29T02:51:12.521Z,16.08
2017-09-29T02:52:12.444Z,16.07
2017-09-29T02:53:12.421Z,16.1
2017-09-29T02:54:12.397Z,16.08
2017-09-29T02:55:12.384Z,16.07
2017-09-29T02:56:12.361Z,16.06
2017-09-29T02:57:12.336Z,16.04
2017-09-29T02:58:12.317Z,16.06
2017-09-29T02:59:12.292Z,16.04
2017-09-29T03:00:12.327Z,16.16
2017-09-29T03:01:12.252Z,16.06
2017-09-29T03:02:12.234Z,16.03
2017-09-29T03:03:12.211Z,16.08
2017-09-29T03:04:11.882Z,16.08
2017-09-29T03:05:12.175Z,16.11
2017-09-29T03:06:12.147Z,16.07
2017-09-29T03:07:12.121Z,16.04
2017-09-29T03:08:12.107Z,16.11
2017-09-29T03:09:12.085Z,16.11
2017-09-29T03:10:12.065Z,16.13
2017-09-29T03:11:12.047Z,16.13
2017-09-29T03:12:12.025Z,16.13
2017-09-29T03:13:12.002Z,16.07
2017-09-29T03:14:11.987Z,16.18
2017-09-29T03:15:11.960Z,16.13
2017-09-29T03:16:11.938Z,16.16
2017-09-29T03:17:11.659Z,16.18
2017-09-29T03:18:11.972Z,16.14
2017-09-29T03:19:11.881Z,16.26
2017-09-29T03:20:11.853Z,16.29
2017-09-29T03:21:11.832Z,16.18
2017-09-29T03:22:11.499Z,16.27
2017-09-29T03:23:11.790Z,16.27
2017-09-29T03:24:11.767Z,16.25
2017-09-29T03:25:11.745Z,16.33
2017-09-29T03:26:11.728Z,16.41
2017-09-29T03:27:11.703Z,16.27
2017-09-29T03:28:11.687Z,16.3
2017-09-29T03:29:11.671Z,16.32
2017-09-29T03:30:11.644Z,16.4
2017-09-29T03:31:11.627Z,16.32
2017-09-29T03:32:11.601Z,16.44
2017-09-29T03:33:11.578Z,16.41
2017-09-29T03:34:11.554Z,16.41
2017-09-29T03:35:11.548Z,16.36
2017-09-29T03:36:11.514Z,16.47
2017-09-29T03:37:11.494Z,16.42
2017-09-29T03:38:11.470Z,16.4
2017-09-29T03:39:11.142Z,16.41
2017-09-29T03:40:11.431Z,16.45
2017-09-29T03:41:11.406Z,16.42
2017-09-29T03:42:11.386Z,16.42
2017-09-29T03:43:11.364Z,16.42
2017-09-29T03:44:11.346Z,16.47
2017-09-29T03:45:11.331Z,16.42
2017-09-29T03:46:11.307Z,16.44
2017-09-29T03:47:11.276Z,16.42
2017-09-29T03:48:11.261Z,16.42
2017-09-29T03:49:11.246Z,16.44
2017-09-29T03:50:11.221Z,16.44
2017-09-29T03:51:11.198Z,16.37
2017-09-29T03:52:10.868Z,16.42
2017-09-29T03:53:11.156Z,16.37
2017-09-29T03:54:11.134Z,16.4
2017-09-29T03:55:11.122Z,16.4
2017-09-29T03:56:11.090Z,16.41
2017-09-29T03:57:11.074Z,16.44
2017-09-29T03:58:11.048Z,16.32
2017-09-29T03:59:11.043Z,16.41
2017-09-29T04:00:11.006Z,16.42
2017-09-29T04:01:10.674Z,16.34
2017-09-29T04:02:10.960Z,16.4
2017-09-29T04:03:10.946Z,16.4
2017-09-29T04:04:10.924Z,16.33
2017-09-29T04:05:10.900Z,16.36
2017-09-29T04:06:10.880Z,16.27
2017-09-29T04:07:10.860Z,16.34
2017-09-29T04:08:10.836Z,16.34
2017-09-29T04:09:10.505Z,16.29
2017-09-29T04:10:10.790Z,16.33
2017-09-29T04:11:10.776Z,16.33
2017-09-29T04:12:10.752Z,16.36
2017-09-29T04:13:10.731Z,16.26
2017-09-29T04:14:10.714Z,16.4
2017-09-29T04:15:10.689Z,16.42
2017-09-29T04:16:10.663Z,16.41
2017-09-29T04:17:10.649Z,16.34
2017-09-29T04:18:10.625Z,16.34
2017-09-29T04:19:10.604Z,16.33
2017-09-29T04:20:10.272Z,16.45
2017-09-29T04:21:10.566Z,16.45
2017-09-29T04:22:10.540Z,16.3
2017-09-29T04:23:10.569Z,16.33
2017-09-29T04:24:10.496Z,16.44
2017-09-29T04:25:10.516Z,16.45
2017-09-29T04:26:10.459Z,16.36
2017-09-29T04:27:10.440Z,16.42
2017-09-29T04:28:10.417Z,16.34
2017-09-29T04:29:10.393Z,16.41
2017-09-29T04:30:10.373Z,16.32
2017-09-29T04:31:10.041Z,16.48
2017-09-29T04:32:10.331Z,16.41
2017-09-29T04:33:10.307Z,16.42
2017-09-29T04:34:10.285Z,16.42
2017-09-29T04:35:10.266Z,16.41
2017-09-29T04:36:10.253Z,16.42
2017-09-29T04:37:10.222Z,16.45
2017-09-29T04:38:10.200Z,16.36
2017-09-29T04:39:09.877Z,16.47
2017-09-29T04:40:10.162Z,16.41
2017-09-29T04:41:10.143Z,16.45
2017-09-29T04:42:10.117Z,16.45
2017-09-29T04:43:10.100Z,16.42
2017-09-29T04:44:10.075Z,16.36
2017-09-29T04:45:10.050Z,16.3
2017-09-29T04:46:10.037Z,16.34
2017-09-29T04:47:10.026Z,16.32
2017-09-29T04:48:10.040Z,16.34
2017-09-29T04:49:09.970Z,16.47
2017-09-29T04:50:09.946Z,16.48
2017-09-29T04:51:09.921Z,16.45
2017-09-29T04:52:09.910Z,16.45
2017-09-29T04:53:09.887Z,16.44
2017-09-29T04:54:09.869Z,16.47
2017-09-29T04:55:09.850Z,16.41
2017-09-29T04:56:09.823Z,16.29
2017-09-29T04:57:09.806Z,16.32
2017-09-29T04:58:09.837Z,16.36
2017-09-29T04:59:09.447Z,16.37
2017-09-29T05:00:09.744Z,16.36
2017-09-29T05:01:09.715Z,16.4
2017-09-29T05:02:09.698Z,16.41
2017-09-29T05:03:09.675Z,16.4
2017-09-29T05:04:09.663Z,16.44
2017-09-29T05:05:09.626Z,16.4
2017-09-29T05:06:09.640Z,16.4
2017-09-29T05:07:09.646Z,16.32
2017-09-29T05:08:09.571Z,16.34
2017-09-29T05:09:09.543Z,16.34
2017-09-29T05:10:09.223Z,16.4
2017-09-29T05:11:09.501Z,16.36
2017-09-29T05:12:09.481Z,16.45
2017-09-29T05:13:09.460Z,16.34
2017-09-29T05:14:09.444Z,16.34
2017-09-29T05:15:09.437Z,16.4
2017-09-29T05:16:09.397Z,16.45
2017-09-29T05:17:09.388Z,16.45
2017-09-29T05:18:09.354Z,16.4
2017-09-29T05:19:09.031Z,16.44
2017-09-29T05:20:09.007Z,16.42
2017-09-29T05:21:09.294Z,16.44
2017-09-29T05:22:09.279Z,16.37
2017-09-29T05:23:09.258Z,16.44
2017-09-29T05:24:09.235Z,16.4
2017-09-29T05:25:09.213Z,16.41
2017-09-29T05:26:09.189Z,16.41
2017-09-29T05:27:09.175Z,16.37
2017-09-29T05:28:09.148Z,16.45
2017-09-29T05:29:09.134Z,16.45
2017-09-29T05:30:09.097Z,16.44
2017-09-29T05:31:09.080Z,16.44
2017-09-29T05:32:09.055Z,16.44
2017-09-29T05:33:09.040Z,16.44
2017-09-29T05:34:09.019Z,16.44
2017-09-29T05:35:09.002Z,16.47
2017-09-29T05:36:08.980Z,16.47
2017-09-29T05:37:08.953Z,16.41
2017-09-29T05:38:08.981Z,16.51
2017-09-29T05:39:08.916Z,16.5
2017-09-29T05:40:08.893Z,16.47
2017-09-29T05:41:08.870Z,16.52
2017-09-29T05:42:08.849Z,16.5
2017-09-29T05:43:08.830Z,16.5
2017-09-29T05:44:08.815Z,16.51
2017-09-29T05:45:08.788Z,16.45
2017-09-29T05:46:08.777Z,16.48
2017-09-29T05:47:08.745Z,16.44
2017-09-29T05:48:08.730Z,16.52
2017-09-29T05:49:08.707Z,16.5
2017-09-29T05:50:08.681Z,16.52
2017-09-29T05:51:08.668Z,16.48
2017-09-29T05:52:08.650Z,16.55
2017-09-29T05:53:08.310Z,16.48
2017-09-29T05:54:08.593Z,16.5
2017-09-29T05:55:08.628Z,16.42
2017-09-29T05:56:08.556Z,16.44
2017-09-29T05:57:08.534Z,16.5
2017-09-29T05:58:08.212Z,16.57
2017-09-29T05:59:08.531Z,16.51
2017-09-29T06:00:08.474Z,16.54
2017-09-29T06:01:08.505Z,16.54
2017-09-29T06:02:08.424Z,16.5
2017-09-29T06:03:08.410Z,16.54
2017-09-29T06:04:08.387Z,16.57
2017-09-29T06:05:08.369Z,16.55
2017-09-29T06:06:08.347Z,16.55
2017-09-29T06:07:08.330Z,16.55
2017-09-29T06:08:08.298Z,16.62
2017-09-29T06:09:08.280Z,16.59
2017-09-29T06:10:08.260Z,16.59
2017-09-29T06:11:08.291Z,16.59
2017-09-29T06:12:08.219Z,16.62
2017-09-29T06:13:08.196Z,16.66
2017-09-29T06:14:08.175Z,16.63
2017-09-29T06:15:08.154Z,16.66
2017-09-29T06:16:08.132Z,16.65
2017-09-29T06:17:08.105Z,16.63
2017-09-29T06:18:07.797Z,16.7
2017-09-29T06:19:08.069Z,16.72
2017-09-29T06:20:08.052Z,16.75
2017-09-29T06:21:08.026Z,16.7
2017-09-29T06:22:08.005Z,16.69
2017-09-29T06:23:07.989Z,16.72
2017-09-29T06:24:07.968Z,16.8
2017-09-29T06:25:07.960Z,16.8
2017-09-29T06:26:07.923Z,16.8
2017-09-29T06:27:07.907Z,16.72
2017-09-29T06:28:07.882Z,16.75
2017-09-29T06:29:07.857Z,16.8
2017-09-29T06:30:07.874Z,16.75
2017-09-29T06:31:07.821Z,16.77
2017-09-29T06:32:07.861Z,16.8
2017-09-29T06:33:07.774Z,16.85
2017-09-29T06:34:07.753Z,16.92
2017-09-29T06:35:07.739Z,16.87
2017-09-29T06:36:07.707Z,16.88
2017-09-29T06:37:07.694Z,16.87
2017-09-29T06:38:07.362Z,16.8
2017-09-29T06:39:07.651Z,16.85
2017-09-29T06:40:07.624Z,16.88
2017-09-29T06:41:07.616Z,16.82
2017-09-29T06:42:07.595Z,16.81
2017-09-29T06:43:07.568Z,16.8
2017-09-29T06:44:07.546Z,16.9
2017-09-29T06:45:07.526Z,16.92
2017-09-29T06:46:07.205Z,16.85
2017-09-29T06:47:07.486Z,16.87
2017-09-29T06:48:07.464Z,16.91
2017-09-29T06:49:07.439Z,16.85
2017-09-29T06:50:07.420Z,16.87
2017-09-29T06:51:07.396Z,16.91
2017-09-29T06:52:07.373Z,16.88
2017-09-29T06:53:07.369Z,16.91
2017-09-29T06:54:07.334Z,16.96
2017-09-29T06:55:07.314Z,16.98
2017-09-29T06:56:07.292Z,16.96
2017-09-29T06:57:07.283Z,16.96
2017-09-29T06:58:07.248Z,17
2017-09-29T06:59:07.226Z,17.03
2017-09-29T07:00:07.214Z,17.03
2017-09-29T07:01:06.937Z,17.03
2017-09-29T07:02:07.167Z,17.12
2017-09-29T07:03:07.152Z,17.14
2017-09-29T07:04:07.123Z,17.12
2017-09-29T07:05:07.103Z,17.1
2017-09-29T07:06:07.112Z,17.2
2017-09-29T07:07:07.065Z,17.18
2017-09-29T07:08:07.049Z,17.3
2017-09-29T07:09:07.024Z,17.25
2017-09-29T07:10:07.001Z,17.25
2017-09-29T07:11:06.984Z,17.3
2017-09-29T07:12:06.959Z,17.32
2017-09-29T07:13:06.946Z,17.36
2017-09-29T07:14:06.934Z,17.25
2017-09-29T07:15:06.903Z,17.33
2017-09-29T07:16:06.887Z,17.33
2017-09-29T07:17:06.548Z,17.32
2017-09-29T07:18:06.843Z,17.28
2017-09-29T07:19:06.821Z,17.4
2017-09-29T07:20:06.797Z,17.3
2017-09-29T07:21:06.774Z,17.36
2017-09-29T07:22:06.808Z,17.32
2017-09-29T07:23:06.734Z,17.33
2017-09-29T07:24:06.738Z,17.36
2017-09-29T07:25:06.699Z,17.32
2017-09-29T07:26:06.681Z,17.33
2017-09-29T07:27:06.652Z,17.42
2017-09-29T07:28:06.636Z,17.42
2017-09-29T07:29:06.606Z,17.42
2017-09-29T07:30:06.589Z,17.43
2017-09-29T07:31:06.265Z,17.43
2017-09-29T07:32:06.248Z,17.51
2017-09-29T07:33:06.535Z,17.45
2017-09-29T07:34:06.208Z,17.46
2017-09-29T07:35:06.534Z,17.49
2017-09-29T07:36:06.158Z,17.54
2017-09-29T07:37:06.454Z,17.6
2017-09-29T07:38:06.428Z,17.55
2017-09-29T07:39:06.094Z,17.51
2017-09-29T07:40:06.384Z,17.6
2017-09-29T07:41:06.363Z,17.57
2017-09-29T07:42:06.349Z,17.55
2017-09-29T07:43:06.327Z,17.63
2017-09-29T07:44:06.307Z,17.65
2017-09-29T07:45:06.281Z,17.63
2017-09-29T07:46:06.009Z,17.63
2017-09-29T07:47:06.247Z,17.6
2017-09-29T07:48:06.227Z,17.65
2017-09-29T07:49:06.202Z,17.65
2017-09-29T07:50:06.190Z,17.65
2017-09-29T07:51:06.161Z,17.76
2017-09-29T07:52:06.141Z,17.74
2017-09-29T07:53:06.120Z,17.7
2017-09-29T07:54:06.100Z,17.7
2017-09-29T07:55:05.777Z,17.74
2017-09-29T07:56:06.059Z,17.81
2017-09-29T07:57:06.036Z,17.76
2017-09-29T07:58:06.023Z,17.79
2017-09-29T07:59:05.991Z,17.8
2017-09-29T08:00:06.035Z,17.83
2017-09-29T08:01:05.647Z,17.89
2017-09-29T08:02:05.944Z,17.89
2017-09-29T08:03:05.915Z,17.86
2017-09-29T08:04:05.901Z,17.94
2017-09-29T08:05:05.876Z,17.89
2017-09-29T08:06:05.848Z,17.91
2017-09-29T08:07:05.837Z,17.95
2017-09-29T08:08:05.813Z,17.95
2017-09-29T08:09:05.794Z,17.89
2017-09-29T08:10:05.771Z,17.99
2017-09-29T08:11:05.804Z,17.99
2017-09-29T08:12:05.446Z,17.98
2017-09-29T08:13:05.710Z,17.98
2017-09-29T08:14:05.690Z,17.96
2017-09-29T08:15:05.669Z,18.04
2017-09-29T08:16:05.660Z,17.98
2017-09-29T08:17:05.637Z,17.81
2017-09-29T08:18:05.608Z,17.95
2017-09-29T08:19:05.631Z,17.99
2017-09-29T08:20:05.588Z,17.99
2017-09-29T08:21:05.556Z,17.98
2017-09-29T08:22:05.535Z,17.99
2017-09-29T08:23:05.506Z,17.96
2017-09-29T08:24:05.499Z,17.99
2017-09-29T08:25:05.471Z,18.07
2017-09-29T08:26:05.446Z,18.04
2017-09-29T08:27:05.439Z,18.05
2017-09-29T08:28:05.405Z,18.19
2017-09-29T08:29:05.391Z,18.09
2017-09-29T08:30:05.372Z,18.14
2017-09-29T08:31:05.350Z,18.11
2017-09-29T08:32:05.332Z,18.23
2017-09-29T08:33:05.323Z,18.26
2017-09-29T08:34:04.987Z,18.29
2017-09-29T08:35:05.276Z,18.29
2017-09-29T08:36:04.949Z,18.35
2017-09-29T08:37:05.231Z,18.31
2017-09-29T08:38:05.211Z,18.35
2017-09-29T08:39:05.202Z,18.34
2017-09-29T08:40:05.185Z,18.36
2017-09-29T08:41:04.890Z,18.44
2017-09-29T08:42:04.836Z,18.46
2017-09-29T08:43:05.157Z,18.36
2017-09-29T08:44:05.087Z,18.49
2017-09-29T08:45:05.104Z,18.39
2017-09-29T08:46:05.088Z,18.54
2017-09-29T08:47:05.267Z,18.51
2017-09-29T08:48:05.011Z,18.51
2017-09-29T08:49:04.993Z,18.56
2017-09-29T08:50:04.976Z,18.54
2017-09-29T08:51:04.942Z,18.57
2017-09-29T08:52:04.923Z,18.6
2017-09-29T08:53:04.961Z,18.6
2017-09-29T08:54:04.883Z,18.62
2017-09-29T08:55:04.940Z,18.64
2017-09-29T08:56:04.897Z,18.62
2017-09-29T08:57:04.839Z,18.74
2017-09-29T08:58:04.807Z,18.82
2017-09-29T08:59:04.812Z,18.97
2017-09-29T09:00:04.793Z,19.1
2017-09-29T09:01:04.771Z,19.07
2017-09-29T09:02:04.737Z,19.13
2017-09-29T09:03:04.710Z,19.27
2017-09-29T09:04:04.382Z,19.17
2017-09-29T09:05:04.678Z,19.35
2017-09-29T09:06:04.728Z,19.32
2017-09-29T09:07:04.637Z,19.49
2017-09-29T09:08:04.624Z,19.53
2017-09-29T09:09:04.602Z,19.64
2017-09-29T09:10:04.597Z,19.7
2017-09-29T09:11:04.557Z,19.76
2017-09-29T09:12:04.539Z,19.82
2017-09-29T09:13:04.573Z,19.79
2017-09-29T09:14:04.191Z,19.86
2017-09-29T09:15:04.177Z,19.85
2017-09-29T09:16:04.154Z,19.83
2017-09-29T09:17:04.471Z,19.94
2017-09-29T09:18:04.421Z,19.94
2017-09-29T09:19:04.412Z,19.95
2017-09-29T09:20:04.080Z,20.04
2017-09-29T09:21:04.373Z,20.05
2017-09-29T09:22:04.347Z,20.17
2017-09-29T09:23:04.325Z,20.26
2017-09-29T09:24:04.314Z,20.48
2017-09-29T09:25:04.300Z,20.73
2017-09-29T09:26:04.283Z,20.72
2017-09-29T09:27:04.256Z,20.82
2017-09-29T09:28:04.240Z,20.97
2017-09-29T09:29:04.218Z,21.06
2017-09-29T09:30:04.202Z,21.28
2017-09-29T09:31:04.223Z,21.42
2017-09-29T09:32:04.169Z,21.55
2017-09-29T09:33:04.145Z,21.55
2017-09-29T09:34:04.130Z,21.52
2017-09-29T09:35:04.116Z,21.53
2017-09-29T09:36:04.108Z,21.55
2017-09-29T09:37:04.081Z,21.53
2017-09-29T09:38:04.073Z,21.52
2017-09-29T09:39:04.047Z,21.48
2017-09-29T09:40:04.020Z,21.4
2017-09-29T09:41:03.706Z,21.31
2017-09-29T09:42:04.019Z,21.28
2017-09-29T09:43:03.986Z,21.11
2017-09-29T09:44:03.955Z,21.18
2017-09-29T09:45:03.934Z,20.98
2017-09-29T09:46:03.918Z,20.96
2017-09-29T09:47:03.594Z,21
2017-09-29T09:48:03.884Z,20.98
2017-09-29T09:49:04.295Z,20.97
2017-09-29T09:50:03.844Z,20.94
2017-09-29T09:51:03.823Z,20.87
2017-09-29T09:52:03.499Z,20.83
2017-09-29T09:53:03.803Z,20.91
2017-09-29T09:54:03.779Z,20.87
2017-09-29T09:55:03.752Z,20.85
2017-09-29T09:56:03.429Z,20.83
2017-09-29T09:57:03.823Z,20.88
2017-09-29T09:58:03.703Z,20.81
2017-09-29T09:59:03.680Z,20.94
2017-09-29T10:00:03.052Z,20.98
2017-09-29T10:01:03.642Z,20.94
2017-09-29T10:02:03.683Z,20.83
2017-09-29T10:03:03.608Z,20.94
2017-09-29T10:04:03.594Z,20.76
2017-09-29T10:05:03.617Z,20.87
2017-09-29T10:06:03.565Z,20.64
2017-09-29T10:07:03.537Z,20.6
2017-09-29T10:08:03.564Z,20.57
2017-09-29T10:09:02.893Z,20.51
2017-09-29T10:10:03.485Z,20.35
2017-09-29T10:11:03.463Z,20.34
2017-09-29T10:12:03.449Z,20.37
2017-09-29T10:13:03.477Z,20.31
2017-09-29T10:14:03.416Z,20.3
2017-09-29T10:15:03.441Z,20.25
2017-09-29T10:16:03.370Z,20.35
2017-09-29T10:17:03.352Z,20.42
2017-09-29T10:18:03.339Z,20.46
2017-09-29T10:19:03.315Z,20.48
2017-09-29T10:20:03.295Z,20.66
2017-09-29T10:21:03.286Z,20.73
2017-09-29T10:22:03.261Z,20.82
2017-09-29T10:23:03.239Z,20.87
2017-09-29T10:24:03.222Z,20.87
2017-09-29T10:25:03.210Z,20.93
2017-09-29T10:26:03.189Z,21
2017-09-29T10:27:03.164Z,21.09
2017-09-29T10:28:03.210Z,21.13
2017-09-29T10:29:03.133Z,21.26
2017-09-29T10:30:03.106Z,21.18
2017-09-29T10:31:03.096Z,21.24
2017-09-29T10:32:02.777Z,21.09
2017-09-29T10:33:03.059Z,21.15
2017-09-29T10:34:03.036Z,21.13
2017-09-29T10:35:02.711Z,21.21
2017-09-29T10:36:03.002Z,21.15
2017-09-29T10:37:02.986Z,21.08
2017-09-29T10:38:02.965Z,21.09
2017-09-29T10:39:02.696Z,21.13
2017-09-29T10:40:03.153Z,21.13
2017-09-29T10:41:02.918Z,21.15
2017-09-29T10:42:02.913Z,21.15
2017-09-29T10:43:02.878Z,21.18
2017-09-29T10:44:02.860Z,21.15
2017-09-29T10:45:02.547Z,21.15
2017-09-29T10:46:02.818Z,21.12
2017-09-29T10:47:02.808Z,21.13
2017-09-29T10:48:02.786Z,21.21
2017-09-29T10:49:02.770Z,21.33
2017-09-29T10:50:02.751Z,21.21
2017-09-29T10:51:02.750Z,21.22
2017-09-29T10:52:02.709Z,21.3
2017-09-29T10:53:02.702Z,21.27
2017-09-29T10:54:02.686Z,21.38
2017-09-29T10:55:02.663Z,21.36
2017-09-29T10:56:02.645Z,21.22
2017-09-29T10:57:02.642Z,21.27
2017-09-29T10:58:02.307Z,21.22
2017-09-29T10:59:02.282Z,21.22
2017-09-29T11:00:02.579Z,21.12
2017-09-29T11:01:02.603Z,20.96
2017-09-29T11:02:02.538Z,21
2017-09-29T11:03:02.516Z,21
2017-09-29T11:04:02.200Z,20.94
2017-09-29T11:05:02.490Z,21
2017-09-29T11:06:02.472Z,20.97
2017-09-29T11:07:02.497Z,21.08
2017-09-29T11:08:02.134Z,21.09
2017-09-29T11:09:02.402Z,21.3
2017-09-29T11:10:02.401Z,21.36
2017-09-29T11:11:02.395Z,21.42
2017-09-29T11:12:02.406Z,21.49
2017-09-29T11:13:02.337Z,21.48
2017-09-29T11:14:02.383Z,21.56
2017-09-29T11:15:02.315Z,21.56
2017-09-29T11:16:02.298Z,21.55
2017-09-29T11:17:02.281Z,21.55
2017-09-29T11:18:02.238Z,21.53
2017-09-29T11:19:02.311Z,21.63
2017-09-29T11:20:02.219Z,21.56
2017-09-29T11:21:01.932Z,21.63
2017-09-29T11:22:02.203Z,21.67
2017-09-29T11:23:02.159Z,21.71
2017-09-29T11:24:02.201Z,21.79
2017-09-29T11:25:01.819Z,21.81
2017-09-29T11:26:02.106Z,21.93
2017-09-29T11:27:01.890Z,21.9
2017-09-29T11:28:02.065Z,21.98
2017-09-29T11:29:02.061Z,21.73
2017-09-29T11:30:02.027Z,21.64
2017-09-29T11:31:02.014Z,21.66
2017-09-29T11:32:02.050Z,21.63
2017-09-29T11:33:01.982Z,21.64
2017-09-29T11:34:01.952Z,21.67
2017-09-29T11:35:01.950Z,21.59
2017-09-29T11:36:01.603Z,21.52
2017-09-29T11:37:01.917Z,21.48
2017-09-29T11:38:01.901Z,21.56
2017-09-29T11:39:01.977Z,21.38
2017-09-29T11:40:01.967Z,21.36
2017-09-29T11:41:01.827Z,21.28
2017-09-29T11:42:01.815Z,21.4
2017-09-29T11:43:01.489Z,21.42
2017-09-29T11:44:01.775Z,21.36
2017-09-29T11:45:01.459Z,21.38
2017-09-29T11:46:01.745Z,21.33
2017-09-29T11:47:01.411Z,21.22
2017-09-29T11:48:01.394Z,21.28
2017-09-29T11:49:01.690Z,21.24
2017-09-29T11:50:01.665Z,21.28
2017-09-29T11:51:01.643Z,21.24
2017-09-29T11:52:01.638Z,21.12
2017-09-29T11:53:01.603Z,21.12
2017-09-29T11:54:01.592Z,21.13
2017-09-29T11:55:01.586Z,21.11
2017-09-29T11:56:01.555Z,21.27
2017-09-29T11:57:01.533Z,21.22
2017-09-29T11:58:01.517Z,21.08
2017-09-29T11:59:01.500Z,21.08
2017-09-29T12:00:01.479Z,21.16
2017-09-29T12:01:01.162Z,21.11
2017-09-29T12:02:01.134Z,21.12
2017-09-29T12:03:01.429Z,21.09
2017-09-29T12:04:01.404Z,21.15
2017-09-29T12:05:01.392Z,21.15
2017-09-29T12:06:01.384Z,21.13
2017-09-29T12:07:01.048Z,21.12
2017-09-29T12:08:01.339Z,21.05
2017-09-29T12:09:01.318Z,21.05
2017-09-29T12:10:02.332Z,21
2017-09-29T12:11:01.268Z,20.98
2017-09-29T12:12:00.954Z,21.01
2017-09-29T12:13:01.244Z,21.06
2017-09-29T12:14:00.970Z,20.98
2017-09-29T12:15:01.200Z,21.08
2017-09-29T12:16:01.191Z,21.12
2017-09-29T12:17:01.164Z,21.12
2017-09-29T12:18:01.147Z,21.15
2017-09-29T12:19:01.132Z,20.98
2017-09-29T12:20:01.121Z,20.96
2017-09-29T12:21:01.093Z,21.08
2017-09-29T12:22:01.081Z,21.09
2017-09-29T12:23:00.745Z,21.12
2017-09-29T12:24:01.027Z,21.05
2017-09-29T12:25:01.013Z,21.11
2017-09-29T12:26:00.996Z,21.11
2017-09-29T12:27:00.980Z,21.06
2017-09-29T12:28:00.967Z,21.16
2017-09-29T12:29:00.373Z,21.22
2017-09-29T12:30:00.930Z,21.26
2017-09-29T12:31:00.900Z,21.37
2017-09-29T12:32:00.940Z,21.48
2017-09-29T12:33:00.621Z,21.52
2017-09-29T12:34:00.850Z,21.56
2017-09-29T12:35:00.848Z,21.58
2017-09-29T12:36:00.820Z,21.68
2017-09-29T12:37:00.797Z,21.79
2017-09-29T12:38:00.469Z,21.79
2017-09-29T12:39:00.753Z,21.85
2017-09-29T12:40:00.732Z,21.94
2017-09-29T12:41:00.726Z,21.93
2017-09-29T12:42:00.701Z,22.01
2017-09-29T12:43:00.675Z,22.05
2017-09-29T12:44:00.679Z,22.05
2017-09-29T12:45:00.345Z,22.06
2017-09-29T12:46:00.641Z,22.06
2017-09-29T12:47:00.617Z,22.02
2017-09-29T12:48:00.640Z,22.11
2017-09-29T12:49:00.581Z,22.12
2017-09-29T12:50:00.551Z,22.02
2017-09-29T12:51:00.535Z,21.98
2017-09-29T12:52:00.516Z,21.86
2017-09-29T12:53:00.502Z,21.86
2017-09-29T12:54:00.473Z,21.9
2017-09-29T12:55:00.461Z,21.83